sensor_id;sensor_type;location;lat;lon;timestamp;temperature;humidity
13336;DHT22;6737;51.480;11.962;2022-12-18T00:00:03;-5.60;99.90
13336;DHT22;6737;51.480;11.962;2022-12-18T00:02:29;-5.80;99.90
13336;DHT22;6737;51.480;11.962;2022-12-18T00:04:55;-5.90;99.90
13336;DHT22;6737;51.480;11.962;2022-12-18T00:07:20;-5.90;99.90
13336;DHT22;6737;51.480;11.962;2022-12-18T00:09:46;-6.00;99.90
13336;DHT22;6737;51.480;11.962;2022-12-18T00:12:12;-6.00;99.90
13336;DHT22;6737;51.480;11.962;2022-12-18T00:14:38;-6.10;99.90
13336;DHT22;6737;51.480;11.962;2022-12-18T00:17:03;-6.10;99.90
13336;DHT22;6737;51.480;11.962;2022-12-18T00:19:29;-5.90;99.90
13336;DHT22;6737;51.480;11.962;2022-12-18T00:21:55;-5.90;99.90
13336;DHT22;6737;51.480;11.962;2022-12-18T00:24:21;-5.90;99.90
13336;DHT22;6737;51.480;11.962;2022-12-18T00:26:46;-5.90;99.90
13336;DHT22;6737;51.480;11.962;2022-12-18T00:29:13;-5.90;99.90
13336;DHT22;6737;51.480;11.962;2022-12-18T00:31:41;-5.90;99.90
13336;DHT22;6737;51.480;11.962;2022-12-18T00:34:10;-6.10;99.90
13336;DHT22;6737;51.480;11.962;2022-12-18T00:36:38;-6.30;99.90
13336;DHT22;6737;51.480;11.962;2022-12-18T00:39:05;-6.40;99.90
13336;DHT22;6737;51.480;11.962;2022-12-18T00:41:31;-6.30;99.90
13336;DHT22;6737;51.480;11.962;2022-12-18T00:44:16;-6.30;99.90
13336;DHT22;6737;51.480;11.962;2022-12-18T00:46:43;-6.20;99.90
13336;DHT22;6737;51.480;11.962;2022-12-18T00:49:12;-6.10;99.90
13336;DHT22;6737;51.480;11.962;2022-12-18T00:51:38;-6.00;99.90
13336;DHT22;6737;51.480;11.962;2022-12-18T00:54:04;-6.10;99.90
13336;DHT22;6737;51.480;11.962;2022-12-18T00:56:30;-5.90;99.90
13336;DHT22;6737;51.480;11.962;2022-12-18T00:58:56;-5.80;99.90
13336;DHT22;6737;51.480;11.962;2022-12-18T01:01:22;-5.70;99.90
13336;DHT22;6737;51.480;11.962;2022-12-18T01:03:48;-5.70;99.90
13336;DHT22;6737;51.480;11.962;2022-12-18T01:06:15;-5.60;99.90
13336;DHT22;6737;51.480;11.962;2022-12-18T01:08:41;-5.60;99.90
13336;DHT22;6737;51.480;11.962;2022-12-18T01:11:12;-5.60;99.90
13336;DHT22;6737;51.480;11.962;2022-12-18T01:13:39;-5.70;99.90
13336;DHT22;6737;51.480;11.962;2022-12-18T01:16:05;-5.70;99.90
13336;DHT22;6737;51.480;11.962;2022-12-18T01:18:31;-5.70;99.90
13336;DHT22;6737;51.480;11.962;2022-12-18T01:20:57;-5.60;99.90
13336;DHT22;6737;51.480;11.962;2022-12-18T01:23:23;-5.70;99.90
13336;DHT22;6737;51.480;11.962;2022-12-18T01:25:49;-5.70;99.90
13336;DHT22;6737;51.480;11.962;2022-12-18T01:28:15;-5.60;99.90
13336;DHT22;6737;51.480;11.962;2022-12-18T01:30:40;-5.60;99.90
13336;DHT22;6737;51.480;11.962;2022-12-18T01:33:06;-5.60;99.90
13336;DHT22;6737;51.480;11.962;2022-12-18T01:35:32;-5.60;99.90
13336;DHT22;6737;51.480;11.962;2022-12-18T01:37:58;-5.50;99.90
13336;DHT22;6737;51.480;11.962;2022-12-18T01:40:24;-5.50;99.90
13336;DHT22;6737;51.480;11.962;2022-12-18T01:42:52;-5.50;99.90
13336;DHT22;6737;51.480;11.962;2022-12-18T01:45:23;-5.50;99.90
13336;DHT22;6737;51.480;11.962;2022-12-18T01:47:57;-5.90;99.90
13336;DHT22;6737;51.480;11.962;2022-12-18T01:50:30;-5.90;99.90
13336;DHT22;6737;51.480;11.962;2022-12-18T01:53:01;-6.10;99.90
13336;DHT22;6737;51.480;11.962;2022-12-18T01:55:31;-6.20;99.90
13336;DHT22;6737;51.480;11.962;2022-12-18T01:57:59;-6.30;99.90
13336;DHT22;6737;51.480;11.962;2022-12-18T02:00:27;-6.20;99.90
13336;DHT22;6737;51.480;11.962;2022-12-18T02:02:53;-6.30;99.90
13336;DHT22;6737;51.480;11.962;2022-12-18T02:08:34;-6.50;99.90
13336;DHT22;6737;51.480;11.962;2022-12-18T02:27:25;-6.80;99.90
13336;DHT22;6737;51.480;11.962;2022-12-18T02:29:54;-6.60;99.90
13336;DHT22;6737;51.480;11.962;2022-12-18T02:32:25;-6.50;99.90
13336;DHT22;6737;51.480;11.962;2022-12-18T02:34:54;-6.40;99.90
13336;DHT22;6737;51.480;11.962;2022-12-18T02:37:23;-6.40;99.90
13336;DHT22;6737;51.480;11.962;2022-12-18T02:39:51;-6.50;99.90
13336;DHT22;6737;51.480;11.962;2022-12-18T02:42:18;-6.40;99.90
13336;DHT22;6737;51.480;11.962;2022-12-18T02:44:47;-6.40;99.90
13336;DHT22;6737;51.480;11.962;2022-12-18T02:47:14;-6.50;99.90
13336;DHT22;6737;51.480;11.962;2022-12-18T02:52:55;-6.60;99.90
13336;DHT22;6737;51.480;11.962;2022-12-18T03:01:11;-6.70;99.90
13336;DHT22;6737;51.480;11.962;2022-12-18T03:03:48;-6.80;99.90
13336;DHT22;6737;51.480;11.962;2022-12-18T03:06:25;-7.00;99.90
13336;DHT22;6737;51.480;11.962;2022-12-18T03:08:58;-6.90;99.90
13336;DHT22;6737;51.480;11.962;2022-12-18T03:11:26;-6.90;99.90
13336;DHT22;6737;51.480;11.962;2022-12-18T03:14:15;-7.00;99.90
13336;DHT22;6737;51.480;11.962;2022-12-18T03:16:43;-7.00;99.90
13336;DHT22;6737;51.480;11.962;2022-12-18T03:19:16;-6.90;99.90
13336;DHT22;6737;51.480;11.962;2022-12-18T03:21:46;-6.80;99.90
13336;DHT22;6737;51.480;11.962;2022-12-18T03:24:13;-6.70;99.90
13336;DHT22;6737;51.480;11.962;2022-12-18T03:26:44;-6.80;99.90
13336;DHT22;6737;51.480;11.962;2022-12-18T03:29:22;-6.70;99.90
13336;DHT22;6737;51.480;11.962;2022-12-18T03:31:58;-6.70;99.90
13336;DHT22;6737;51.480;11.962;2022-12-18T03:34:32;-6.70;99.90
13336;DHT22;6737;51.480;11.962;2022-12-18T03:36:59;-6.70;99.90
13336;DHT22;6737;51.480;11.962;2022-12-18T03:39:25;-6.60;99.90
13336;DHT22;6737;51.480;11.962;2022-12-18T03:44:41;-6.60;99.90
13336;DHT22;6737;51.480;11.962;2022-12-18T03:47:38;-6.50;99.90
13336;DHT22;6737;51.480;11.962;2022-12-18T03:52:56;-6.50;99.90
13336;DHT22;6737;51.480;11.962;2022-12-18T03:55:25;-6.40;99.90
13336;DHT22;6737;51.480;11.962;2022-12-18T03:57:53;-6.50;99.90
13336;DHT22;6737;51.480;11.962;2022-12-18T04:00:19;-6.90;99.90
13336;DHT22;6737;51.480;11.962;2022-12-18T04:02:51;-7.30;99.90
13336;DHT22;6737;51.480;11.962;2022-12-18T04:05:18;-7.30;99.90
13336;DHT22;6737;51.480;11.962;2022-12-18T04:07:49;-7.60;99.90
13336;DHT22;6737;51.480;11.962;2022-12-18T04:10:18;-7.60;99.90
13336;DHT22;6737;51.480;11.962;2022-12-18T04:12:44;-7.60;99.90
13336;DHT22;6737;51.480;11.962;2022-12-18T04:15:11;-7.70;99.90
13336;DHT22;6737;51.480;11.962;2022-12-18T04:17:38;-7.70;99.90
13336;DHT22;6737;51.480;11.962;2022-12-18T04:20:04;-7.80;99.90
13336;DHT22;6737;51.480;11.962;2022-12-18T04:22:30;-7.90;99.90
13336;DHT22;6737;51.480;11.962;2022-12-18T04:24:55;-8.00;99.90
13336;DHT22;6737;51.480;11.962;2022-12-18T04:27:21;-8.00;99.90
13336;DHT22;6737;51.480;11.962;2022-12-18T04:29:47;-7.90;99.90
13336;DHT22;6737;51.480;11.962;2022-12-18T04:32:13;-7.90;99.90
13336;DHT22;6737;51.480;11.962;2022-12-18T04:34:39;-8.10;99.90
13336;DHT22;6737;51.480;11.962;2022-12-18T04:37:04;-8.30;99.90
13336;DHT22;6737;51.480;11.962;2022-12-18T04:39:30;-8.30;99.90
13336;DHT22;6737;51.480;11.962;2022-12-18T04:41:56;-8.50;99.90
13336;DHT22;6737;51.480;11.962;2022-12-18T04:44:22;-8.70;99.90
13336;DHT22;6737;51.480;11.962;2022-12-18T04:46:47;-8.80;99.90
13336;DHT22;6737;51.480;11.962;2022-12-18T04:49:13;-8.90;99.90
13336;DHT22;6737;51.480;11.962;2022-12-18T04:51:39;-9.20;99.90
13336;DHT22;6737;51.480;11.962;2022-12-18T04:54:05;-9.20;99.90
13336;DHT22;6737;51.480;11.962;2022-12-18T04:56:32;-9.30;99.90
13336;DHT22;6737;51.480;11.962;2022-12-18T04:58:57;-9.40;99.90
13336;DHT22;6737;51.480;11.962;2022-12-18T05:01:23;-9.40;99.90
13336;DHT22;6737;51.480;11.962;2022-12-18T05:03:51;-9.50;99.90
13336;DHT22;6737;51.480;11.962;2022-12-18T05:06:17;-9.50;99.90
13336;DHT22;6737;51.480;11.962;2022-12-18T05:08:42;-9.60;99.90
13336;DHT22;6737;51.480;11.962;2022-12-18T05:11:11;-9.60;99.90
13336;DHT22;6737;51.480;11.962;2022-12-18T05:13:37;-9.50;99.90
13336;DHT22;6737;51.480;11.962;2022-12-18T05:16:04;-9.50;99.90
13336;DHT22;6737;51.480;11.962;2022-12-18T05:18:30;-9.60;99.90
13336;DHT22;6737;51.480;11.962;2022-12-18T05:20:56;-9.60;99.90
13336;DHT22;6737;51.480;11.962;2022-12-18T05:23:23;-9.60;99.90
13336;DHT22;6737;51.480;11.962;2022-12-18T05:26:00;-9.70;99.90
13336;DHT22;6737;51.480;11.962;2022-12-18T05:28:28;-9.60;99.90
13336;DHT22;6737;51.480;11.962;2022-12-18T05:30:57;-9.60;99.90
13336;DHT22;6737;51.480;11.962;2022-12-18T05:33:24;-9.70;99.90
13336;DHT22;6737;51.480;11.962;2022-12-18T05:35:51;-9.60;99.90
13336;DHT22;6737;51.480;11.962;2022-12-18T05:38:18;-9.50;99.90
13336;DHT22;6737;51.480;11.962;2022-12-18T05:40:44;-9.50;99.90
13336;DHT22;6737;51.480;11.962;2022-12-18T05:43:10;-9.70;99.90
13336;DHT22;6737;51.480;11.962;2022-12-18T05:45:39;-9.70;99.90
13336;DHT22;6737;51.480;11.962;2022-12-18T05:48:06;-9.70;99.90
13336;DHT22;6737;51.480;11.962;2022-12-18T05:50:36;-9.60;99.90
13336;DHT22;6737;51.480;11.962;2022-12-18T05:53:03;-9.80;99.90
13336;DHT22;6737;51.480;11.962;2022-12-18T05:55:33;-9.70;99.90
13336;DHT22;6737;51.480;11.962;2022-12-18T05:57:59;-9.70;99.90
13336;DHT22;6737;51.480;11.962;2022-12-18T06:00:24;-9.70;99.90
13336;DHT22;6737;51.480;11.962;2022-12-18T06:02:50;-9.70;99.90
13336;DHT22;6737;51.480;11.962;2022-12-18T06:05:16;-9.80;99.90
13336;DHT22;6737;51.480;11.962;2022-12-18T06:07:41;-10.00;99.90
13336;DHT22;6737;51.480;11.962;2022-12-18T06:10:07;-9.90;99.90
13336;DHT22;6737;51.480;11.962;2022-12-18T06:12:33;-9.90;99.90
13336;DHT22;6737;51.480;11.962;2022-12-18T06:15:00;-9.80;99.90
13336;DHT22;6737;51.480;11.962;2022-12-18T06:17:30;-9.80;99.90
13336;DHT22;6737;51.480;11.962;2022-12-18T06:19:56;-9.80;99.90
13336;DHT22;6737;51.480;11.962;2022-12-18T06:22:22;-9.80;99.90
13336;DHT22;6737;51.480;11.962;2022-12-18T06:24:48;-9.80;99.90
13336;DHT22;6737;51.480;11.962;2022-12-18T06:27:14;-9.70;99.90
13336;DHT22;6737;51.480;11.962;2022-12-18T06:29:39;-9.60;99.90
13336;DHT22;6737;51.480;11.962;2022-12-18T06:32:05;-9.60;99.90
13336;DHT22;6737;51.480;11.962;2022-12-18T06:34:32;-9.60;99.90
13336;DHT22;6737;51.480;11.962;2022-12-18T06:36:58;-9.60;99.90
13336;DHT22;6737;51.480;11.962;2022-12-18T06:39:23;-9.60;99.90
13336;DHT22;6737;51.480;11.962;2022-12-18T06:41:49;-9.60;99.90
13336;DHT22;6737;51.480;11.962;2022-12-18T06:44:15;-9.80;99.90
13336;DHT22;6737;51.480;11.962;2022-12-18T06:46:41;-9.90;99.90
13336;DHT22;6737;51.480;11.962;2022-12-18T06:49:06;-10.00;99.90
13336;DHT22;6737;51.480;11.962;2022-12-18T06:51:34;-9.90;99.90
13336;DHT22;6737;51.480;11.962;2022-12-18T06:54:00;-9.90;99.90
13336;DHT22;6737;51.480;11.962;2022-12-18T06:56:27;-10.00;99.90
13336;DHT22;6737;51.480;11.962;2022-12-18T06:58:53;-10.20;99.90
13336;DHT22;6737;51.480;11.962;2022-12-18T07:01:19;-10.20;99.90
13336;DHT22;6737;51.480;11.962;2022-12-18T07:03:45;-10.20;99.90
13336;DHT22;6737;51.480;11.962;2022-12-18T07:06:18;-10.20;99.90
13336;DHT22;6737;51.480;11.962;2022-12-18T07:08:46;-10.10;99.90
13336;DHT22;6737;51.480;11.962;2022-12-18T07:11:12;-10.20;99.90
13336;DHT22;6737;51.480;11.962;2022-12-18T07:13:38;-10.30;99.90
13336;DHT22;6737;51.480;11.962;2022-12-18T07:16:30;-10.40;99.90
13336;DHT22;6737;51.480;11.962;2022-12-18T07:18:56;-10.60;99.90
13336;DHT22;6737;51.480;11.962;2022-12-18T07:21:23;-10.60;99.90
13336;DHT22;6737;51.480;11.962;2022-12-18T07:23:49;-10.70;99.90
13336;DHT22;6737;51.480;11.962;2022-12-18T07:26:17;-10.70;99.90
13336;DHT22;6737;51.480;11.962;2022-12-18T07:28:43;-10.80;99.90
13336;DHT22;6737;51.480;11.962;2022-12-18T07:31:20;-10.80;99.90
13336;DHT22;6737;51.480;11.962;2022-12-18T07:33:47;-10.90;99.90
13336;DHT22;6737;51.480;11.962;2022-12-18T07:36:13;-10.70;99.90
13336;DHT22;6737;51.480;11.962;2022-12-18T07:38:39;-10.50;99.90
13336;DHT22;6737;51.480;11.962;2022-12-18T07:41:10;-10.50;99.90
13336;DHT22;6737;51.480;11.962;2022-12-18T07:43:37;-10.50;99.90
13336;DHT22;6737;51.480;11.962;2022-12-18T07:46:03;-10.50;99.90
13336;DHT22;6737;51.480;11.962;2022-12-18T07:48:30;-10.40;99.90
13336;DHT22;6737;51.480;11.962;2022-12-18T07:51:03;-10.30;99.90
13336;DHT22;6737;51.480;11.962;2022-12-18T07:53:30;-10.40;99.90
13336;DHT22;6737;51.480;11.962;2022-12-18T07:55:57;-10.60;99.90
13336;DHT22;6737;51.480;11.962;2022-12-18T07:58:23;-10.40;99.90
13336;DHT22;6737;51.480;11.962;2022-12-18T08:00:49;-10.20;99.90
13336;DHT22;6737;51.480;11.962;2022-12-18T08:03:15;-10.10;99.90
13336;DHT22;6737;51.480;11.962;2022-12-18T08:05:40;-10.10;99.90
13336;DHT22;6737;51.480;11.962;2022-12-18T08:08:06;-10.10;99.90
13336;DHT22;6737;51.480;11.962;2022-12-18T08:10:32;-10.20;99.90
13336;DHT22;6737;51.480;11.962;2022-12-18T08:12:57;-10.20;99.90
13336;DHT22;6737;51.480;11.962;2022-12-18T08:15:23;-10.20;99.90
13336;DHT22;6737;51.480;11.962;2022-12-18T08:17:49;-10.20;99.90
13336;DHT22;6737;51.480;11.962;2022-12-18T08:20:14;-10.30;99.90
13336;DHT22;6737;51.480;11.962;2022-12-18T08:22:41;-10.30;99.90
13336;DHT22;6737;51.480;11.962;2022-12-18T08:25:07;-10.30;99.90
13336;DHT22;6737;51.480;11.962;2022-12-18T08:27:33;-10.30;99.90
13336;DHT22;6737;51.480;11.962;2022-12-18T08:29:59;-10.30;99.90
13336;DHT22;6737;51.480;11.962;2022-12-18T08:32:26;-10.30;99.90
13336;DHT22;6737;51.480;11.962;2022-12-18T08:34:52;-10.20;99.90
13336;DHT22;6737;51.480;11.962;2022-12-18T08:37:18;-10.20;99.90
13336;DHT22;6737;51.480;11.962;2022-12-18T08:39:43;-10.10;99.90
13336;DHT22;6737;51.480;11.962;2022-12-18T08:42:10;-9.80;99.90
13336;DHT22;6737;51.480;11.962;2022-12-18T08:44:54;-9.60;99.90
13336;DHT22;6737;51.480;11.962;2022-12-18T08:47:20;-9.50;99.90
13336;DHT22;6737;51.480;11.962;2022-12-18T08:49:45;-9.60;99.90
13336;DHT22;6737;51.480;11.962;2022-12-18T08:52:14;-9.60;99.90
13336;DHT22;6737;51.480;11.962;2022-12-18T08:54:40;-9.60;99.90
13336;DHT22;6737;51.480;11.962;2022-12-18T08:57:05;-9.70;99.90
13336;DHT22;6737;51.480;11.962;2022-12-18T08:59:32;-9.70;99.90
13336;DHT22;6737;51.480;11.962;2022-12-18T09:01:57;-9.70;99.90
13336;DHT22;6737;51.480;11.962;2022-12-18T09:04:23;-9.70;99.90
13336;DHT22;6737;51.480;11.962;2022-12-18T09:06:49;-9.70;99.90
13336;DHT22;6737;51.480;11.962;2022-12-18T09:09:14;-9.60;99.90
13336;DHT22;6737;51.480;11.962;2022-12-18T09:11:40;-9.60;99.90
13336;DHT22;6737;51.480;11.962;2022-12-18T09:14:06;-9.40;99.90
13336;DHT22;6737;51.480;11.962;2022-12-18T09:16:32;-9.30;99.90
13336;DHT22;6737;51.480;11.962;2022-12-18T09:19:00;-9.30;99.90
13336;DHT22;6737;51.480;11.962;2022-12-18T09:21:32;-9.20;99.90
13336;DHT22;6737;51.480;11.962;2022-12-18T09:23:59;-9.00;99.90
13336;DHT22;6737;51.480;11.962;2022-12-18T09:26:26;-8.90;99.90
13336;DHT22;6737;51.480;11.962;2022-12-18T09:28:52;-8.80;99.90
13336;DHT22;6737;51.480;11.962;2022-12-18T09:31:19;-8.60;99.90
13336;DHT22;6737;51.480;11.962;2022-12-18T09:33:45;-8.60;99.90
13336;DHT22;6737;51.480;11.962;2022-12-18T09:36:13;-8.50;99.90
13336;DHT22;6737;51.480;11.962;2022-12-18T09:38:39;-8.40;99.90
13336;DHT22;6737;51.480;11.962;2022-12-18T09:41:33;-8.30;99.90
13336;DHT22;6737;51.480;11.962;2022-12-18T09:44:10;-8.10;99.90
13336;DHT22;6737;51.480;11.962;2022-12-18T09:46:42;-8.00;99.90
13336;DHT22;6737;51.480;11.962;2022-12-18T09:49:15;-7.80;99.90
13336;DHT22;6737;51.480;11.962;2022-12-18T09:51:46;-7.70;99.90
13336;DHT22;6737;51.480;11.962;2022-12-18T09:54:18;-7.60;99.90
13336;DHT22;6737;51.480;11.962;2022-12-18T09:56:45;-7.40;99.90
13336;DHT22;6737;51.480;11.962;2022-12-18T09:59:24;-7.30;99.90
13336;DHT22;6737;51.480;11.962;2022-12-18T10:01:51;-7.30;99.90
13336;DHT22;6737;51.480;11.962;2022-12-18T10:04:17;-7.10;99.90
13336;DHT22;6737;51.480;11.962;2022-12-18T10:17:49;-6.10;99.90
13336;DHT22;6737;51.480;11.962;2022-12-18T10:23:23;-5.80;99.90
13336;DHT22;6737;51.480;11.962;2022-12-18T10:26:03;-5.70;99.90
13336;DHT22;6737;51.480;11.962;2022-12-18T10:28:31;-5.60;99.90
13336;DHT22;6737;51.480;11.962;2022-12-18T10:30:58;-5.60;99.90
13336;DHT22;6737;51.480;11.962;2022-12-18T10:33:28;-5.60;99.90
13336;DHT22;6737;51.480;11.962;2022-12-18T10:35:55;-5.40;99.90
13336;DHT22;6737;51.480;11.962;2022-12-18T10:38:24;-5.30;99.90
13336;DHT22;6737;51.480;11.962;2022-12-18T10:40:59;-5.20;99.90
13336;DHT22;6737;51.480;11.962;2022-12-18T10:43:28;-5.10;99.90
13336;DHT22;6737;51.480;11.962;2022-12-18T10:48:27;-4.90;99.90
13336;DHT22;6737;51.480;11.962;2022-12-18T10:50:53;-4.90;99.90
13336;DHT22;6737;51.480;11.962;2022-12-18T10:53:23;-4.80;99.90
13336;DHT22;6737;51.480;11.962;2022-12-18T10:55:49;-4.70;99.90
13336;DHT22;6737;51.480;11.962;2022-12-18T10:58:29;-4.70;99.90
13336;DHT22;6737;51.480;11.962;2022-12-18T11:01:14;-4.60;99.90
13336;DHT22;6737;51.480;11.962;2022-12-18T11:03:59;-4.60;99.90
13336;DHT22;6737;51.480;11.962;2022-12-18T11:06:26;-4.50;99.90
13336;DHT22;6737;51.480;11.962;2022-12-18T11:09:06;-4.40;99.90
13336;DHT22;6737;51.480;11.962;2022-12-18T11:11:49;-4.40;99.90
13336;DHT22;6737;51.480;11.962;2022-12-18T11:14:33;-4.30;99.90
13336;DHT22;6737;51.480;11.962;2022-12-18T11:17:00;-4.30;99.90
13336;DHT22;6737;51.480;11.962;2022-12-18T11:21:52;-4.20;99.90
13336;DHT22;6737;51.480;11.962;2022-12-18T11:24:34;-4.20;99.90
13336;DHT22;6737;51.480;11.962;2022-12-18T11:27:05;-4.20;99.90
13336;DHT22;6737;51.480;11.962;2022-12-18T11:29:40;-4.10;99.90
13336;DHT22;6737;51.480;11.962;2022-12-18T11:34:50;-4.00;99.90
13336;DHT22;6737;51.480;11.962;2022-12-18T11:37:18;-4.00;99.90
13336;DHT22;6737;51.480;11.962;2022-12-18T11:39:51;-4.00;99.90
13336;DHT22;6737;51.480;11.962;2022-12-18T11:42:35;-3.90;99.90
13336;DHT22;6737;51.480;11.962;2022-12-18T11:50:17;-3.70;99.90
13336;DHT22;6737;51.480;11.962;2022-12-18T11:52:44;-3.70;99.90
13336;DHT22;6737;51.480;11.962;2022-12-18T11:58:17;-3.50;99.90
13336;DHT22;6737;51.480;11.962;2022-12-18T12:06:34;-3.50;99.90
13336;DHT22;6737;51.480;11.962;2022-12-18T12:09:20;-3.50;99.90
13336;DHT22;6737;51.480;11.962;2022-12-18T12:22:48;-3.30;99.90
13336;DHT22;6737;51.480;11.962;2022-12-18T12:25:32;-3.30;99.90
13336;DHT22;6737;51.480;11.962;2022-12-18T12:31:02;-3.30;99.90
13336;DHT22;6737;51.480;11.962;2022-12-18T12:36:21;-3.30;99.90
13336;DHT22;6737;51.480;11.962;2022-12-18T12:38:55;-3.30;99.90
13336;DHT22;6737;51.480;11.962;2022-12-18T12:41:24;-3.30;99.90
13336;DHT22;6737;51.480;11.962;2022-12-18T12:44:28;-3.20;99.90
13336;DHT22;6737;51.480;11.962;2022-12-18T12:46:57;-3.20;99.90
13336;DHT22;6737;51.480;11.962;2022-12-18T12:49:27;-3.20;99.90
13336;DHT22;6737;51.480;11.962;2022-12-18T12:52:05;-3.30;99.90
13336;DHT22;6737;51.480;11.962;2022-12-18T12:54:33;-3.40;99.90
13336;DHT22;6737;51.480;11.962;2022-12-18T12:57:14;-3.30;99.90
13336;DHT22;6737;51.480;11.962;2022-12-18T13:02:42;-3.30;99.90
13336;DHT22;6737;51.480;11.962;2022-12-18T13:08:03;-3.30;99.90
13336;DHT22;6737;51.480;11.962;2022-12-18T13:10:36;-3.30;99.90
13336;DHT22;6737;51.480;11.962;2022-12-18T13:13:09;-3.30;99.90
13336;DHT22;6737;51.480;11.962;2022-12-18T13:15:47;-3.30;99.90
13336;DHT22;6737;51.480;11.962;2022-12-18T13:18:24;-3.30;99.90
13336;DHT22;6737;51.480;11.962;2022-12-18T13:23:26;-3.20;99.90
13336;DHT22;6737;51.480;11.962;2022-12-18T13:31:07;-3.20;99.90
13336;DHT22;6737;51.480;11.962;2022-12-18T13:33:44;-3.20;99.90
13336;DHT22;6737;51.480;11.962;2022-12-18T13:38:42;-3.20;99.90
13336;DHT22;6737;51.480;11.962;2022-12-18T13:43:54;-3.30;99.90
13336;DHT22;6737;51.480;11.962;2022-12-18T13:46:40;-3.30;99.90
13336;DHT22;6737;51.480;11.962;2022-12-18T13:49:18;-3.20;99.90
13336;DHT22;6737;51.480;11.962;2022-12-18T13:51:49;-3.30;99.90
13336;DHT22;6737;51.480;11.962;2022-12-18T13:54:34;-3.30;99.90
13336;DHT22;6737;51.480;11.962;2022-12-18T13:57:01;-3.30;99.90
13336;DHT22;6737;51.480;11.962;2022-12-18T13:59:40;-3.20;99.90
13336;DHT22;6737;51.480;11.962;2022-12-18T14:02:14;-3.30;99.90
13336;DHT22;6737;51.480;11.962;2022-12-18T14:04:40;-3.30;99.90
13336;DHT22;6737;51.480;11.962;2022-12-18T14:07:10;-3.40;99.90
13336;DHT22;6737;51.480;11.962;2022-12-18T14:09:42;-3.30;99.90
13336;DHT22;6737;51.480;11.962;2022-12-18T14:12:16;-3.40;99.90
13336;DHT22;6737;51.480;11.962;2022-12-18T14:15:01;-3.40;99.90
13336;DHT22;6737;51.480;11.962;2022-12-18T14:17:27;-3.40;99.90
13336;DHT22;6737;51.480;11.962;2022-12-18T14:19:53;-3.50;99.90
13336;DHT22;6737;51.480;11.962;2022-12-18T14:22:25;-3.50;99.90
13336;DHT22;6737;51.480;11.962;2022-12-18T14:27:43;-3.60;99.90
13336;DHT22;6737;51.480;11.962;2022-12-18T14:30:28;-3.60;99.90
13336;DHT22;6737;51.480;11.962;2022-12-18T14:33:02;-3.60;99.90
13336;DHT22;6737;51.480;11.962;2022-12-18T14:35:28;-3.60;99.90
13336;DHT22;6737;51.480;11.962;2022-12-18T14:38:08;-3.70;99.90
13336;DHT22;6737;51.480;11.962;2022-12-18T14:40:34;-3.70;99.90
13336;DHT22;6737;51.480;11.962;2022-12-18T14:42:59;-3.70;99.90
13336;DHT22;6737;51.480;11.962;2022-12-18T14:45:39;-3.60;99.90
13336;DHT22;6737;51.480;11.962;2022-12-18T14:48:21;-3.70;99.90
13336;DHT22;6737;51.480;11.962;2022-12-18T14:53:42;-3.70;99.90
13336;DHT22;6737;51.480;11.962;2022-12-18T14:56:35;-3.80;99.90
13336;DHT22;6737;51.480;11.962;2022-12-18T14:59:03;-3.90;99.90
13336;DHT22;6737;51.480;11.962;2022-12-18T15:01:36;-3.90;99.90
13336;DHT22;6737;51.480;11.962;2022-12-18T15:04:04;-3.90;99.90
13336;DHT22;6737;51.480;11.962;2022-12-18T15:06:35;-3.90;99.90
13336;DHT22;6737;51.480;11.962;2022-12-18T15:09:18;-3.80;99.90
13336;DHT22;6737;51.480;11.962;2022-12-18T15:11:46;-3.90;99.90
13336;DHT22;6737;51.480;11.962;2022-12-18T15:16:57;-4.00;99.90
13336;DHT22;6737;51.480;11.962;2022-12-18T15:19:40;-3.90;99.90
13336;DHT22;6737;51.480;11.962;2022-12-18T15:22:26;-3.90;99.90
13336;DHT22;6737;51.480;11.962;2022-12-18T15:24:53;-4.00;99.90
13336;DHT22;6737;51.480;11.962;2022-12-18T15:27:31;-4.00;99.90
13336;DHT22;6737;51.480;11.962;2022-12-18T15:32:37;-4.00;99.90
13336;DHT22;6737;51.480;11.962;2022-12-18T15:35:15;-4.00;99.90
13336;DHT22;6737;51.480;11.962;2022-12-18T15:37:42;-4.10;99.90
13336;DHT22;6737;51.480;11.962;2022-12-18T15:40:16;-4.00;99.90
13336;DHT22;6737;51.480;11.962;2022-12-18T15:42:42;-4.10;99.90
13336;DHT22;6737;51.480;11.962;2022-12-18T15:45:27;-4.10;99.90
13336;DHT22;6737;51.480;11.962;2022-12-18T15:47:53;-4.10;99.90
13336;DHT22;6737;51.480;11.962;2022-12-18T15:50:19;-4.10;99.90
13336;DHT22;6737;51.480;11.962;2022-12-18T15:52:47;-4.20;99.90
13336;DHT22;6737;51.480;11.962;2022-12-18T15:55:18;-4.20;99.90
13336;DHT22;6737;51.480;11.962;2022-12-18T15:58:03;-4.20;99.90
13336;DHT22;6737;51.480;11.962;2022-12-18T16:00:29;-4.30;99.90
13336;DHT22;6737;51.480;11.962;2022-12-18T16:02:55;-4.20;99.90
13336;DHT22;6737;51.480;11.962;2022-12-18T16:05:22;-4.20;99.90
13336;DHT22;6737;51.480;11.962;2022-12-18T16:07:48;-4.20;99.90
13336;DHT22;6737;51.480;11.962;2022-12-18T16:10:14;-4.20;99.90
13336;DHT22;6737;51.480;11.962;2022-12-18T16:12:41;-4.20;99.90
13336;DHT22;6737;51.480;11.962;2022-12-18T16:15:10;-4.30;99.90
13336;DHT22;6737;51.480;11.962;2022-12-18T16:17:36;-4.20;99.90
13336;DHT22;6737;51.480;11.962;2022-12-18T16:20:01;-4.20;99.90
13336;DHT22;6737;51.480;11.962;2022-12-18T16:22:29;-4.30;99.90
13336;DHT22;6737;51.480;11.962;2022-12-18T16:24:55;-4.40;99.90
13336;DHT22;6737;51.480;11.962;2022-12-18T16:27:23;-4.40;99.90
13336;DHT22;6737;51.480;11.962;2022-12-18T16:29:50;-4.40;99.90
13336;DHT22;6737;51.480;11.962;2022-12-18T16:32:18;-4.40;99.90
13336;DHT22;6737;51.480;11.962;2022-12-18T16:34:45;-4.50;99.90
13336;DHT22;6737;51.480;11.962;2022-12-18T16:37:13;-4.40;99.90
13336;DHT22;6737;51.480;11.962;2022-12-18T16:39:40;-4.40;99.90
13336;DHT22;6737;51.480;11.962;2022-12-18T16:42:26;-4.40;99.90
13336;DHT22;6737;51.480;11.962;2022-12-18T16:44:52;-4.30;99.90
13336;DHT22;6737;51.480;11.962;2022-12-18T16:47:18;-4.40;99.90
13336;DHT22;6737;51.480;11.962;2022-12-18T16:49:45;-4.40;99.90
13336;DHT22;6737;51.480;11.962;2022-12-18T16:52:12;-4.40;99.90
13336;DHT22;6737;51.480;11.962;2022-12-18T16:54:38;-4.40;99.90
13336;DHT22;6737;51.480;11.962;2022-12-18T16:57:04;-4.40;99.90
13336;DHT22;6737;51.480;11.962;2022-12-18T16:59:30;-4.40;99.90
13336;DHT22;6737;51.480;11.962;2022-12-18T17:01:56;-4.40;99.90
13336;DHT22;6737;51.480;11.962;2022-12-18T17:04:22;-4.40;99.90
13336;DHT22;6737;51.480;11.962;2022-12-18T17:06:48;-4.30;99.90
13336;DHT22;6737;51.480;11.962;2022-12-18T17:09:17;-4.20;99.90
13336;DHT22;6737;51.480;11.962;2022-12-18T17:11:50;-4.20;99.90
13336;DHT22;6737;51.480;11.962;2022-12-18T17:14:19;-4.10;99.90
13336;DHT22;6737;51.480;11.962;2022-12-18T17:16:45;-4.10;99.90
13336;DHT22;6737;51.480;11.962;2022-12-18T17:19:12;-4.10;99.90
13336;DHT22;6737;51.480;11.962;2022-12-18T17:21:38;-4.10;99.90
13336;DHT22;6737;51.480;11.962;2022-12-18T17:24:04;-4.10;99.90
13336;DHT22;6737;51.480;11.962;2022-12-18T17:26:31;-4.10;99.90
13336;DHT22;6737;51.480;11.962;2022-12-18T17:28:57;-4.00;99.90
13336;DHT22;6737;51.480;11.962;2022-12-18T17:31:25;-4.00;99.90
13336;DHT22;6737;51.480;11.962;2022-12-18T17:33:52;-4.10;99.90
13336;DHT22;6737;51.480;11.962;2022-12-18T17:36:18;-4.20;99.90
13336;DHT22;6737;51.480;11.962;2022-12-18T17:38:55;-4.10;99.90